South Milwaukee, WI (53172)

6:20 AM CST on March 01, 2015 (GMT -0600)
South Milwaukee | Change Station
CLOSE
Current Station
Personal Weather Station
Location: South Milwaukee, WI
Elevation: 687 ft
Nearby Weather Stations

Elev 687 ft 42.91 °N, 87.88 °W | Updated 4 seconds ago

Overcast
Overcast
11.7 °F
Feels Like 12 °F
N
0.0
Wind Variable Wind from SW
Gusts 3.0 mph

Today
High -- | Low -- °F
--% Chance of Precip.
Yesterday
High -- | Low -- °F
Precip. -- in
6:27 AM 5:40 PM
Waxing Gibbous, 84% visible
Pressure 30.42 in
Visibility 6.0 miles
Clouds Overcast 500 ft
Windchill 12 °F
Dew Point 10 °F
Humidity 92%
Rainfall 0.00 in
Snow Depth Not available.
UV 0 out of 12
Pollen .50 out of 12
Air Quality Not available.
Flu Activity Not available.
METAR KMKE 011152Z 00000KT 6SM HZ OVC005 M10/M12 A3037 RMK AO2 SLP299 4/008 60000 I6000 T11001122 11083 21111 56008 $

More Conditions Fewer Conditions

Pressure 30.42 in
Visibility 6.0 miles
Clouds Overcast 500 ft
Windchill 12 °F
Dew Point 10 °F
Humidity 92%
Rainfall 0.00 in
Snow Depth Not available.
UV 0 out of 12
Pollen .50 out of 12
Air Quality Not available.
Flu Activity Not available.
METAR KMKE 011152Z 00000KT 6SM HZ OVC005 M10/M12 A3037 RMK AO2 SLP299 4/008 60000 I6000 T11001122 11083 21111 56008 $

More Conditions Fewer Conditions

10-Day Weather Forecast

Almanac

Astronomy

Mar. 01, 2015 Rise Set
Actual Time
Civil Twilight
Nautical Twilight
Astronomical Twilight
Moon
Length of Visible Light
Length of Day
Tomorrow will be .
, % of the Moon is Illuminated

Today's Extremes

State Highs State Lows

Community

WunderPhotos

Upload Photos

1,801,365 photos uploaded!

WunderBlogs® & News

Nearby

Air Quality

  Air Quality AQ Index Pollutant
Not available.

Snow Depth

Station Depth Elevation

Earthquake Activity

City Distance Mag. Time & Date
Minimum magnitude displayed is 2.5.

Coastal Water Temperatures

Place Temperature

Nearby Weather Stations